sensor_id;sensor_type;location;lat;lon;timestamp;temperature;humidity
51029;DHT22;37054;52.054;8.600;2023-04-24T00:01:48;16.20;62.80
51029;DHT22;37054;52.054;8.600;2023-04-24T00:04:13;16.20;63.00
51029;DHT22;37054;52.054;8.600;2023-04-24T00:06:41;16.10;62.90
51029;DHT22;37054;52.054;8.600;2023-04-24T00:09:08;16.00;62.60
51029;DHT22;37054;52.054;8.600;2023-04-24T00:11:35;15.90;62.40
51029;DHT22;37054;52.054;8.600;2023-04-24T00:14:00;15.80;62.70
51029;DHT22;37054;52.054;8.600;2023-04-24T00:16:26;15.80;62.80
51029;DHT22;37054;52.054;8.600;2023-04-24T00:18:52;15.70;63.00
51029;DHT22;37054;52.054;8.600;2023-04-24T00:21:21;15.70;62.90
51029;DHT22;37054;52.054;8.600;2023-04-24T00:23:47;15.60;63.20
51029;DHT22;37054;52.054;8.600;2023-04-24T00:26:12;15.50;63.00
51029;DHT22;37054;52.054;8.600;2023-04-24T00:28:38;15.50;63.10
51029;DHT22;37054;52.054;8.600;2023-04-24T00:31:03;15.40;63.30
51029;DHT22;37054;52.054;8.600;2023-04-24T00:33:28;15.40;62.90
51029;DHT22;37054;52.054;8.600;2023-04-24T00:35:54;15.30;62.80
51029;DHT22;37054;52.054;8.600;2023-04-24T00:38:19;15.20;62.90
51029;DHT22;37054;52.054;8.600;2023-04-24T00:40:45;15.30;63.30
51029;DHT22;37054;52.054;8.600;2023-04-24T00:43:10;15.30;63.70
51029;DHT22;37054;52.054;8.600;2023-04-24T00:45:37;15.30;63.80
51029;DHT22;37054;52.054;8.600;2023-04-24T00:48:02;15.30;63.80
51029;DHT22;37054;52.054;8.600;2023-04-24T00:50:28;15.40;63.70
51029;DHT22;37054;52.054;8.600;2023-04-24T00:52:53;15.30;63.40
51029;DHT22;37054;52.054;8.600;2023-04-24T00:55:19;15.20;63.60
51029;DHT22;37054;52.054;8.600;2023-04-24T00:57:45;15.30;64.10
51029;DHT22;37054;52.054;8.600;2023-04-24T01:00:12;15.30;64.00
51029;DHT22;37054;52.054;8.600;2023-04-24T01:02:39;15.40;63.70
51029;DHT22;37054;52.054;8.600;2023-04-24T01:05:08;15.40;63.60
51029;DHT22;37054;52.054;8.600;2023-04-24T01:07:34;15.40;63.70
51029;DHT22;37054;52.054;8.600;2023-04-24T01:09:59;15.40;63.80
51029;DHT22;37054;52.054;8.600;2023-04-24T01:12:25;15.40;63.90
51029;DHT22;37054;52.054;8.600;2023-04-24T01:14:50;15.60;63.90
51029;DHT22;37054;52.054;8.600;2023-04-24T01:17:16;15.60;63.90
51029;DHT22;37054;52.054;8.600;2023-04-24T01:19:41;15.70;63.80
51029;DHT22;37054;52.054;8.600;2023-04-24T01:22:10;15.70;63.70
51029;DHT22;37054;52.054;8.600;2023-04-24T01:24:36;15.70;63.70
51029;DHT22;37054;52.054;8.600;2023-04-24T01:27:02;15.60;63.80
51029;DHT22;37054;52.054;8.600;2023-04-24T01:29:28;15.70;63.80
51029;DHT22;37054;52.054;8.600;2023-04-24T01:31:54;15.80;63.80
51029;DHT22;37054;52.054;8.600;2023-04-24T01:34:20;15.80;63.80
51029;DHT22;37054;52.054;8.600;2023-04-24T01:36:45;15.80;63.70
51029;DHT22;37054;52.054;8.600;2023-04-24T01:39:11;15.90;63.80
51029;DHT22;37054;52.054;8.600;2023-04-24T01:41:37;16.00;63.70
51029;DHT22;37054;52.054;8.600;2023-04-24T01:44:02;16.00;63.50
51029;DHT22;37054;52.054;8.600;2023-04-24T01:46:28;16.00;63.20
51029;DHT22;37054;52.054;8.600;2023-04-24T01:48:53;15.90;63.00
51029;DHT22;37054;52.054;8.600;2023-04-24T01:51:19;15.80;62.80
51029;DHT22;37054;52.054;8.600;2023-04-24T01:53:45;15.80;62.60
51029;DHT22;37054;52.054;8.600;2023-04-24T01:56:10;15.70;62.50
51029;DHT22;37054;52.054;8.600;2023-04-24T01:58:36;15.50;62.40
51029;DHT22;37054;52.054;8.600;2023-04-24T02:01:01;15.40;62.90
51029;DHT22;37054;52.054;8.600;2023-04-24T02:03:27;15.40;63.20
51029;DHT22;37054;52.054;8.600;2023-04-24T02:05:52;15.40;63.10
51029;DHT22;37054;52.054;8.600;2023-04-24T02:08:18;15.30;62.70
51029;DHT22;37054;52.054;8.600;2023-04-24T02:10:43;15.30;62.80
51029;DHT22;37054;52.054;8.600;2023-04-24T02:13:09;15.20;62.80
51029;DHT22;37054;52.054;8.600;2023-04-24T02:15:35;15.10;62.60
51029;DHT22;37054;52.054;8.600;2023-04-24T02:18:01;15.00;62.80
51029;DHT22;37054;52.054;8.600;2023-04-24T02:20:26;15.00;62.90
51029;DHT22;37054;52.054;8.600;2023-04-24T02:22:52;14.90;63.20
51029;DHT22;37054;52.054;8.600;2023-04-24T02:25:17;14.90;63.00
51029;DHT22;37054;52.054;8.600;2023-04-24T02:27:43;14.90;63.00
51029;DHT22;37054;52.054;8.600;2023-04-24T02:30:08;14.90;62.90
51029;DHT22;37054;52.054;8.600;2023-04-24T02:32:34;14.80;62.90
51029;DHT22;37054;52.054;8.600;2023-04-24T02:34:59;14.80;62.90
51029;DHT22;37054;52.054;8.600;2023-04-24T02:37:25;14.80;62.80
51029;DHT22;37054;52.054;8.600;2023-04-24T02:39:50;14.70;63.10
51029;DHT22;37054;52.054;8.600;2023-04-24T02:42:15;14.80;63.10
51029;DHT22;37054;52.054;8.600;2023-04-24T02:44:41;14.70;63.10
51029;DHT22;37054;52.054;8.600;2023-04-24T02:47:06;14.70;63.40
51029;DHT22;37054;52.054;8.600;2023-04-24T02:49:32;14.70;63.20
51029;DHT22;37054;52.054;8.600;2023-04-24T02:51:58;14.70;63.10
51029;DHT22;37054;52.054;8.600;2023-04-24T02:54:23;14.70;63.00
51029;DHT22;37054;52.054;8.600;2023-04-24T02:56:49;14.70;63.00
51029;DHT22;37054;52.054;8.600;2023-04-24T02:59:14;14.70;63.20
51029;DHT22;37054;52.054;8.600;2023-04-24T03:01:40;14.70;63.10
51029;DHT22;37054;52.054;8.600;2023-04-24T03:04:05;14.60;62.80
51029;DHT22;37054;52.054;8.600;2023-04-24T03:06:31;14.60;62.90
51029;DHT22;37054;52.054;8.600;2023-04-24T03:08:58;14.50;63.10
51029;DHT22;37054;52.054;8.600;2023-04-24T03:11:23;14.60;63.50
51029;DHT22;37054;52.054;8.600;2023-04-24T03:13:49;14.70;63.80
51029;DHT22;37054;52.054;8.600;2023-04-24T03:16:14;14.70;64.20
51029;DHT22;37054;52.054;8.600;2023-04-24T03:18:40;14.90;64.40
51029;DHT22;37054;52.054;8.600;2023-04-24T03:21:05;15.00;64.50
51029;DHT22;37054;52.054;8.600;2023-04-24T03:23:30;15.20;64.50
51029;DHT22;37054;52.054;8.600;2023-04-24T03:25:56;15.30;64.30
51029;DHT22;37054;52.054;8.600;2023-04-24T03:28:21;15.40;64.30
51029;DHT22;37054;52.054;8.600;2023-04-24T03:30:47;15.50;64.20
51029;DHT22;37054;52.054;8.600;2023-04-24T03:33:12;15.70;64.20
51029;DHT22;37054;52.054;8.600;2023-04-24T03:35:38;15.70;64.20
51029;DHT22;37054;52.054;8.600;2023-04-24T03:38:03;15.80;63.90
51029;DHT22;37054;52.054;8.600;2023-04-24T03:40:31;15.80;64.00
51029;DHT22;37054;52.054;8.600;2023-04-24T03:42:58;15.90;63.90
51029;DHT22;37054;52.054;8.600;2023-04-24T03:45:24;15.90;63.60
51029;DHT22;37054;52.054;8.600;2023-04-24T03:47:49;16.00;63.70
51029;DHT22;37054;52.054;8.600;2023-04-24T03:50:15;16.10;63.70
51029;DHT22;37054;52.054;8.600;2023-04-24T03:52:40;16.20;63.60
51029;DHT22;37054;52.054;8.600;2023-04-24T03:55:06;16.20;63.70
51029;DHT22;37054;52.054;8.600;2023-04-24T03:57:32;16.20;63.50
51029;DHT22;37054;52.054;8.600;2023-04-24T03:59:57;16.20;62.90
51029;DHT22;37054;52.054;8.600;2023-04-24T04:02:22;16.20;63.00
51029;DHT22;37054;52.054;8.600;2023-04-24T04:04:48;16.10;62.60
51029;DHT22;37054;52.054;8.600;2023-04-24T04:07:13;16.10;62.40
51029;DHT22;37054;52.054;8.600;2023-04-24T04:09:39;16.10;62.80
51029;DHT22;37054;52.054;8.600;2023-04-24T04:12:04;16.10;62.90
51029;DHT22;37054;52.054;8.600;2023-04-24T04:14:30;16.20;62.90
51029;DHT22;37054;52.054;8.600;2023-04-24T04:16:55;16.10;63.00
51029;DHT22;37054;52.054;8.600;2023-04-24T04:19:21;16.10;62.80
51029;DHT22;37054;52.054;8.600;2023-04-24T04:21:46;16.10;62.70
51029;DHT22;37054;52.054;8.600;2023-04-24T04:24:15;16.10;62.20
51029;DHT22;37054;52.054;8.600;2023-04-24T04:26:41;16.10;62.40
51029;DHT22;37054;52.054;8.600;2023-04-24T04:29:11;16.20;62.60
51029;DHT22;37054;52.054;8.600;2023-04-24T04:31:37;16.20;62.60
51029;DHT22;37054;52.054;8.600;2023-04-24T04:34:02;16.20;62.70
51029;DHT22;37054;52.054;8.600;2023-04-24T04:36:28;16.20;62.80
51029;DHT22;37054;52.054;8.600;2023-04-24T04:38:54;16.30;62.70
51029;DHT22;37054;52.054;8.600;2023-04-24T04:41:20;16.20;62.40
51029;DHT22;37054;52.054;8.600;2023-04-24T04:43:45;16.30;62.50
51029;DHT22;37054;52.054;8.600;2023-04-24T04:46:11;16.30;62.80
51029;DHT22;37054;52.054;8.600;2023-04-24T04:48:37;16.40;62.70
51029;DHT22;37054;52.054;8.600;2023-04-24T04:51:03;16.50;62.90
51029;DHT22;37054;52.054;8.600;2023-04-24T04:53:28;16.50;62.80
51029;DHT22;37054;52.054;8.600;2023-04-24T04:55:54;16.60;62.70
51029;DHT22;37054;52.054;8.600;2023-04-24T04:58:19;16.60;62.70
51029;DHT22;37054;52.054;8.600;2023-04-24T05:00:45;16.70;62.90
51029;DHT22;37054;52.054;8.600;2023-04-24T05:03:11;16.70;62.80
51029;DHT22;37054;52.054;8.600;2023-04-24T05:05:36;16.70;62.00
51029;DHT22;37054;52.054;8.600;2023-04-24T05:08:06;16.70;60.70
51029;DHT22;37054;52.054;8.600;2023-04-24T05:10:31;16.60;60.60
51029;DHT22;37054;52.054;8.600;2023-04-24T05:12:57;16.60;60.90
51029;DHT22;37054;52.054;8.600;2023-04-24T05:15:22;16.50;60.00
51029;DHT22;37054;52.054;8.600;2023-04-24T05:17:48;16.50;60.20
51029;DHT22;37054;52.054;8.600;2023-04-24T05:20:13;16.40;60.60
51029;DHT22;37054;52.054;8.600;2023-04-24T05:22:40;16.40;60.30
51029;DHT22;37054;52.054;8.600;2023-04-24T05:25:05;16.40;60.40
51029;DHT22;37054;52.054;8.600;2023-04-24T05:27:31;16.50;60.70
51029;DHT22;37054;52.054;8.600;2023-04-24T05:29:56;16.30;59.50
51029;DHT22;37054;52.054;8.600;2023-04-24T05:32:22;16.30;60.00
51029;DHT22;37054;52.054;8.600;2023-04-24T05:34:47;16.40;60.50
51029;DHT22;37054;52.054;8.600;2023-04-24T05:37:12;16.50;60.40
51029;DHT22;37054;52.054;8.600;2023-04-24T05:39:38;16.50;60.20
51029;DHT22;37054;52.054;8.600;2023-04-24T05:42:04;16.50;59.30
51029;DHT22;37054;52.054;8.600;2023-04-24T05:44:30;16.60;59.90
51029;DHT22;37054;52.054;8.600;2023-04-24T05:46:55;16.60;60.30
51029;DHT22;37054;52.054;8.600;2023-04-24T05:49:21;16.70;60.50
51029;DHT22;37054;52.054;8.600;2023-04-24T05:51:46;16.70;60.30
51029;DHT22;37054;52.054;8.600;2023-04-24T05:54:12;16.70;59.90
51029;DHT22;37054;52.054;8.600;2023-04-24T05:56:37;16.60;58.70
51029;DHT22;37054;52.054;8.600;2023-04-24T05:59:03;16.70;59.00
51029;DHT22;37054;52.054;8.600;2023-04-24T06:01:28;16.70;58.80
51029;DHT22;37054;52.054;8.600;2023-04-24T06:03:54;16.70;58.90
51029;DHT22;37054;52.054;8.600;2023-04-24T06:06:20;16.80;58.70
51029;DHT22;37054;52.054;8.600;2023-04-24T06:08:46;16.70;58.20
51029;DHT22;37054;52.054;8.600;2023-04-24T06:11:11;16.70;57.40
51029;DHT22;37054;52.054;8.600;2023-04-24T06:13:36;16.80;58.30
51029;DHT22;37054;52.054;8.600;2023-04-24T06:16:02;16.90;58.40
51029;DHT22;37054;52.054;8.600;2023-04-24T06:18:27;17.10;59.00
51029;DHT22;37054;52.054;8.600;2023-04-24T06:20:53;17.20;58.70
51029;DHT22;37054;52.054;8.600;2023-04-24T06:23:18;17.20;58.30
51029;DHT22;37054;52.054;8.600;2023-04-24T06:25:44;17.20;57.40
51029;DHT22;37054;52.054;8.600;2023-04-24T06:28:09;17.20;57.20
51029;DHT22;37054;52.054;8.600;2023-04-24T06:30:35;17.20;56.90
51029;DHT22;37054;52.054;8.600;2023-04-24T06:33:00;17.30;57.10
51029;DHT22;37054;52.054;8.600;2023-04-24T06:35:26;17.20;56.40
51029;DHT22;37054;52.054;8.600;2023-04-24T06:37:51;17.20;56.20
51029;DHT22;37054;52.054;8.600;2023-04-24T06:40:16;17.20;55.80
51029;DHT22;37054;52.054;8.600;2023-04-24T06:42:44;17.30;56.30
51029;DHT22;37054;52.054;8.600;2023-04-24T06:45:09;17.30;57.10
51029;DHT22;37054;52.054;8.600;2023-04-24T06:47:35;17.40;56.70
51029;DHT22;37054;52.054;8.600;2023-04-24T06:50:00;17.40;56.50
51029;DHT22;37054;52.054;8.600;2023-04-24T06:52:26;17.40;56.20
51029;DHT22;37054;52.054;8.600;2023-04-24T06:54:51;17.30;54.80
51029;DHT22;37054;52.054;8.600;2023-04-24T06:57:17;17.30;55.00
51029;DHT22;37054;52.054;8.600;2023-04-24T06:59:43;17.30;55.00
51029;DHT22;37054;52.054;8.600;2023-04-24T07:02:08;17.30;55.40
51029;DHT22;37054;52.054;8.600;2023-04-24T07:04:34;17.30;56.10
51029;DHT22;37054;52.054;8.600;2023-04-24T07:06:59;17.30;55.50
51029;DHT22;37054;52.054;8.600;2023-04-24T07:09:25;17.40;55.70
51029;DHT22;37054;52.054;8.600;2023-04-24T07:11:51;17.40;54.80
51029;DHT22;37054;52.054;8.600;2023-04-24T07:14:17;17.40;55.00
51029;DHT22;37054;52.054;8.600;2023-04-24T07:16:43;17.40;54.20
51029;DHT22;37054;52.054;8.600;2023-04-24T07:19:08;17.30;53.40
51029;DHT22;37054;52.054;8.600;2023-04-24T07:21:34;17.30;53.30
51029;DHT22;37054;52.054;8.600;2023-04-24T07:23:59;17.30;53.10
51029;DHT22;37054;52.054;8.600;2023-04-24T07:26:26;17.40;53.20
51029;DHT22;37054;52.054;8.600;2023-04-24T07:28:51;17.20;51.70
51029;DHT22;37054;52.054;8.600;2023-04-24T07:31:17;17.30;53.00
51029;DHT22;37054;52.054;8.600;2023-04-24T07:33:42;17.50;53.60
51029;DHT22;37054;52.054;8.600;2023-04-24T07:36:08;17.50;53.60
51029;DHT22;37054;52.054;8.600;2023-04-24T07:38:33;17.50;52.30
51029;DHT22;37054;52.054;8.600;2023-04-24T07:40:59;17.60;52.40
51029;DHT22;37054;52.054;8.600;2023-04-24T07:43:24;17.70;53.00
51029;DHT22;37054;52.054;8.600;2023-04-24T07:45:50;17.80;52.20
51029;DHT22;37054;52.054;8.600;2023-04-24T07:48:15;17.70;51.60
51029;DHT22;37054;52.054;8.600;2023-04-24T07:50:43;17.80;52.20
51029;DHT22;37054;52.054;8.600;2023-04-24T07:53:08;17.80;52.30
51029;DHT22;37054;52.054;8.600;2023-04-24T07:55:34;17.80;50.40
51029;DHT22;37054;52.054;8.600;2023-04-24T07:57:59;17.60;50.00
51029;DHT22;37054;52.054;8.600;2023-04-24T08:00:25;17.70;50.70
51029;DHT22;37054;52.054;8.600;2023-04-24T08:02:50;17.90;51.50
51029;DHT22;37054;52.054;8.600;2023-04-24T08:05:16;18.00;50.90
51029;DHT22;37054;52.054;8.600;2023-04-24T08:07:41;18.10;51.00
51029;DHT22;37054;52.054;8.600;2023-04-24T08:10:09;18.20;50.70
51029;DHT22;37054;52.054;8.600;2023-04-24T08:12:35;18.20;50.10
51029;DHT22;37054;52.054;8.600;2023-04-24T08:15:00;18.20;49.60
51029;DHT22;37054;52.054;8.600;2023-04-24T08:17:26;18.20;49.50
51029;DHT22;37054;52.054;8.600;2023-04-24T08:19:51;18.30;49.50
51029;DHT22;37054;52.054;8.600;2023-04-24T08:22:18;18.30;49.30
51029;DHT22;37054;52.054;8.600;2023-04-24T08:24:44;18.20;49.20
51029;DHT22;37054;52.054;8.600;2023-04-24T08:27:09;18.20;49.20
51029;DHT22;37054;52.054;8.600;2023-04-24T08:29:35;18.20;49.50
51029;DHT22;37054;52.054;8.600;2023-04-24T08:32:01;18.20;49.70
51029;DHT22;37054;52.054;8.600;2023-04-24T08:34:26;18.20;49.70
51029;DHT22;37054;52.054;8.600;2023-04-24T08:36:52;18.30;49.70
51029;DHT22;37054;52.054;8.600;2023-04-24T08:39:17;18.20;48.70
51029;DHT22;37054;52.054;8.600;2023-04-24T08:41:43;18.20;48.60
51029;DHT22;37054;52.054;8.600;2023-04-24T08:44:10;18.30;48.50
51029;DHT22;37054;52.054;8.600;2023-04-24T08:46:36;18.40;48.60
51029;DHT22;37054;52.054;8.600;2023-04-24T08:49:02;18.70;49.00
51029;DHT22;37054;52.054;8.600;2023-04-24T08:51:28;19.00;48.90
51029;DHT22;37054;52.054;8.600;2023-04-24T08:53:55;19.20;47.80
51029;DHT22;37054;52.054;8.600;2023-04-24T08:56:21;19.20;46.10
51029;DHT22;37054;52.054;8.600;2023-04-24T08:58:49;19.20;45.60
51029;DHT22;37054;52.054;8.600;2023-04-24T09:01:15;19.30;45.90
51029;DHT22;37054;52.054;8.600;2023-04-24T09:03:41;19.40;46.40
51029;DHT22;37054;52.054;8.600;2023-04-24T09:06:06;19.50;46.10
51029;DHT22;37054;52.054;8.600;2023-04-24T09:08:33;19.50;46.10
51029;DHT22;37054;52.054;8.600;2023-04-24T09:10:58;19.50;46.20
51029;DHT22;37054;52.054;8.600;2023-04-24T09:13:27;19.40;45.60
51029;DHT22;37054;52.054;8.600;2023-04-24T09:15:52;19.10;43.90
51029;DHT22;37054;52.054;8.600;2023-04-24T09:18:19;19.10;44.80
51029;DHT22;37054;52.054;8.600;2023-04-24T09:21:04;19.00;44.90
51029;DHT22;37054;52.054;8.600;2023-04-24T09:23:31;18.90;44.60
51029;DHT22;37054;52.054;8.600;2023-04-24T09:25:58;18.60;44.00
51029;DHT22;37054;52.054;8.600;2023-04-24T09:28:29;18.60;44.50
51029;DHT22;37054;52.054;8.600;2023-04-24T09:31:11;18.70;44.60
51029;DHT22;37054;52.054;8.600;2023-04-24T09:33:38;18.70;45.10
51029;DHT22;37054;52.054;8.600;2023-04-24T09:36:03;18.80;44.90
51029;DHT22;37054;52.054;8.600;2023-04-24T09:38:35;18.90;45.10
51029;DHT22;37054;52.054;8.600;2023-04-24T09:41:01;18.90;45.30
51029;DHT22;37054;52.054;8.600;2023-04-24T09:43:28;19.00;45.80
51029;DHT22;37054;52.054;8.600;2023-04-24T09:45:55;18.90;44.30
51029;DHT22;37054;52.054;8.600;2023-04-24T09:48:29;18.90;44.00
51029;DHT22;37054;52.054;8.600;2023-04-24T09:50:55;18.70;43.30
51029;DHT22;37054;52.054;8.600;2023-04-24T09:53:23;18.80;43.40
51029;DHT22;37054;52.054;8.600;2023-04-24T09:55:49;18.80;43.70
51029;DHT22;37054;52.054;8.600;2023-04-24T09:58:15;18.90;44.20
51029;DHT22;37054;52.054;8.600;2023-04-24T10:00:41;19.00;43.50
51029;DHT22;37054;52.054;8.600;2023-04-24T10:03:06;18.90;43.50
51029;DHT22;37054;52.054;8.600;2023-04-24T10:05:32;18.80;42.90
51029;DHT22;37054;52.054;8.600;2023-04-24T10:08:02;18.90;43.70
51029;DHT22;37054;52.054;8.600;2023-04-24T10:10:28;18.90;43.60
51029;DHT22;37054;52.054;8.600;2023-04-24T10:12:54;18.90;43.50
51029;DHT22;37054;52.054;8.600;2023-04-24T10:15:20;18.80;43.80
51029;DHT22;37054;52.054;8.600;2023-04-24T10:17:47;18.80;44.00
51029;DHT22;37054;52.054;8.600;2023-04-24T10:20:18;18.60;44.30
51029;DHT22;37054;52.054;8.600;2023-04-24T10:22:44;18.60;44.70
51029;DHT22;37054;52.054;8.600;2023-04-24T10:25:11;18.40;44.20
51029;DHT22;37054;52.054;8.600;2023-04-24T10:27:37;18.30;44.00
51029;DHT22;37054;52.054;8.600;2023-04-24T10:30:03;18.40;44.50
51029;DHT22;37054;52.054;8.600;2023-04-24T10:32:28;18.30;43.80
51029;DHT22;37054;52.054;8.600;2023-04-24T10:34:54;18.40;43.90
51029;DHT22;37054;52.054;8.600;2023-04-24T10:37:21;18.50;44.00
51029;DHT22;37054;52.054;8.600;2023-04-24T10:39:47;18.70;44.30
51029;DHT22;37054;52.054;8.600;2023-04-24T10:42:14;18.80;44.20
51029;DHT22;37054;52.054;8.600;2023-04-24T10:44:40;19.10;44.10
51029;DHT22;37054;52.054;8.600;2023-04-24T10:47:06;19.20;43.50
51029;DHT22;37054;52.054;8.600;2023-04-24T10:49:38;19.20;43.20
51029;DHT22;37054;52.054;8.600;2023-04-24T10:52:03;19.30;43.00
51029;DHT22;37054;52.054;8.600;2023-04-24T10:54:35;19.20;43.30
51029;DHT22;37054;52.054;8.600;2023-04-24T10:59:49;19.20;43.40
51029;DHT22;37054;52.054;8.600;2023-04-24T11:02:15;19.10;43.90
51029;DHT22;37054;52.054;8.600;2023-04-24T11:04:41;19.10;44.60
51029;DHT22;37054;52.054;8.600;2023-04-24T11:07:13;19.00;45.20
51029;DHT22;37054;52.054;8.600;2023-04-24T11:09:38;19.00;46.40
51029;DHT22;37054;52.054;8.600;2023-04-24T11:12:07;18.80;47.40
51029;DHT22;37054;52.054;8.600;2023-04-24T11:17:36;18.40;49.20
51029;DHT22;37054;52.054;8.600;2023-04-24T11:20:03;18.20;50.40
51029;DHT22;37054;52.054;8.600;2023-04-24T11:22:32;17.90;51.00
51029;DHT22;37054;52.054;8.600;2023-04-24T11:24:59;17.80;51.60
51029;DHT22;37054;52.054;8.600;2023-04-24T11:27:27;17.50;51.90
51029;DHT22;37054;52.054;8.600;2023-04-24T11:32:27;17.40;53.80
51029;DHT22;37054;52.054;8.600;2023-04-24T11:34:54;17.50;54.80
51029;DHT22;37054;52.054;8.600;2023-04-24T11:37:19;17.70;55.40
51029;DHT22;37054;52.054;8.600;2023-04-24T11:39:45;17.80;55.90
51029;DHT22;37054;52.054;8.600;2023-04-24T11:42:10;18.10;55.80
51029;DHT22;37054;52.054;8.600;2023-04-24T11:44:39;18.20;55.90
51029;DHT22;37054;52.054;8.600;2023-04-24T11:47:05;18.10;56.10
51029;DHT22;37054;52.054;8.600;2023-04-24T11:49:31;18.00;56.50
51029;DHT22;37054;52.054;8.600;2023-04-24T11:51:56;17.80;57.00
51029;DHT22;37054;52.054;8.600;2023-04-24T11:54:21;17.70;57.50
51029;DHT22;37054;52.054;8.600;2023-04-24T11:56:47;17.50;58.20
51029;DHT22;37054;52.054;8.600;2023-04-24T11:59:13;17.30;58.80
51029;DHT22;37054;52.054;8.600;2023-04-24T12:01:45;17.20;59.80
51029;DHT22;37054;52.054;8.600;2023-04-24T12:04:11;17.10;60.60
51029;DHT22;37054;52.054;8.600;2023-04-24T12:06:36;16.90;60.60
51029;DHT22;37054;52.054;8.600;2023-04-24T12:09:02;16.90;61.00
51029;DHT22;37054;52.054;8.600;2023-04-24T12:11:27;16.80;61.50
51029;DHT22;37054;52.054;8.600;2023-04-24T12:13:53;16.80;61.30
51029;DHT22;37054;52.054;8.600;2023-04-24T12:16:18;16.70;61.10
51029;DHT22;37054;52.054;8.600;2023-04-24T12:18:44;16.70;61.60
51029;DHT22;37054;52.054;8.600;2023-04-24T12:23:43;16.50;62.10
51029;DHT22;37054;52.054;8.600;2023-04-24T12:26:08;16.30;62.30
51029;DHT22;37054;52.054;8.600;2023-04-24T12:28:37;16.30;62.50
51029;DHT22;37054;52.054;8.600;2023-04-24T12:31:03;16.20;62.30
51029;DHT22;37054;52.054;8.600;2023-04-24T12:33:32;16.10;62.60
51029;DHT22;37054;52.054;8.600;2023-04-24T12:35:57;16.00;62.60
51029;DHT22;37054;52.054;8.600;2023-04-24T12:38:23;15.90;62.50
51029;DHT22;37054;52.054;8.600;2023-04-24T12:41:01;15.80;62.60
51029;DHT22;37054;52.054;8.600;2023-04-24T12:43:27;15.80;63.10
51029;DHT22;37054;52.054;8.600;2023-04-24T12:45:52;15.80;63.60
51029;DHT22;37054;52.054;8.600;2023-04-24T12:48:17;15.90;63.60
51029;DHT22;37054;52.054;8.600;2023-04-24T12:50:43;15.90;63.70
51029;DHT22;37054;52.054;8.600;2023-04-24T12:53:09;15.90;63.80
51029;DHT22;37054;52.054;8.600;2023-04-24T12:55:35;15.90;63.80
51029;DHT22;37054;52.054;8.600;2023-04-24T12:58:00;15.90;64.00
51029;DHT22;37054;52.054;8.600;2023-04-24T13:00:27;16.00;63.90
51029;DHT22;37054;52.054;8.600;2023-04-24T13:02:52;16.00;64.20
51029;DHT22;37054;52.054;8.600;2023-04-24T13:05:17;16.00;63.70
51029;DHT22;37054;52.054;8.600;2023-04-24T13:07:43;16.00;63.70
51029;DHT22;37054;52.054;8.600;2023-04-24T13:10:09;16.00;63.60
51029;DHT22;37054;52.054;8.600;2023-04-24T13:12:34;16.00;64.00
51029;DHT22;37054;52.054;8.600;2023-04-24T13:15:00;16.10;64.30
51029;DHT22;37054;52.054;8.600;2023-04-24T13:17:25;16.10;63.80
51029;DHT22;37054;52.054;8.600;2023-04-24T13:19:54;16.10;64.10
51029;DHT22;37054;52.054;8.600;2023-04-24T13:22:20;16.10;64.00
51029;DHT22;37054;52.054;8.600;2023-04-24T13:24:45;16.10;63.90
51029;DHT22;37054;52.054;8.600;2023-04-24T13:27:13;16.00;63.70
51029;DHT22;37054;52.054;8.600;2023-04-24T13:29:39;16.00;63.60
51029;DHT22;37054;52.054;8.600;2023-04-24T13:32:04;16.00;63.50
51029;DHT22;37054;52.054;8.600;2023-04-24T13:34:31;15.90;63.70
51029;DHT22;37054;52.054;8.600;2023-04-24T13:36:56;15.90;64.10
51029;DHT22;37054;52.054;8.600;2023-04-24T13:39:22;16.00;64.30
51029;DHT22;37054;52.054;8.600;2023-04-24T13:41:48;16.00;64.00
51029;DHT22;37054;52.054;8.600;2023-04-24T13:44:16;15.90;63.50
51029;DHT22;37054;52.054;8.600;2023-04-24T13:46:42;15.80;63.50
51029;DHT22;37054;52.054;8.600;2023-04-24T13:49:09;15.80;63.70
51029;DHT22;37054;52.054;8.600;2023-04-24T13:51:35;15.70;63.30
51029;DHT22;37054;52.054;8.600;2023-04-24T13:54:00;15.70;63.40
51029;DHT22;37054;52.054;8.600;2023-04-24T13:56:26;15.60;63.60
51029;DHT22;37054;52.054;8.600;2023-04-24T13:58:51;15.60;64.00
51029;DHT22;37054;52.054;8.600;2023-04-24T14:01:17;15.60;64.30
51029;DHT22;37054;52.054;8.600;2023-04-24T14:03:42;15.70;64.50
51029;DHT22;37054;52.054;8.600;2023-04-24T14:06:10;15.80;64.50
51029;DHT22;37054;52.054;8.600;2023-04-24T14:08:36;15.80;64.40
51029;DHT22;37054;52.054;8.600;2023-04-24T14:11:02;16.00;64.40
51029;DHT22;37054;52.054;8.600;2023-04-24T14:13:28;16.00;64.40
51029;DHT22;37054;52.054;8.600;2023-04-24T14:15:53;16.20;64.60
51029;DHT22;37054;52.054;8.600;2023-04-24T14:18:19;16.30;64.60
51029;DHT22;37054;52.054;8.600;2023-04-24T14:20:44;16.50;64.60
51029;DHT22;37054;52.054;8.600;2023-04-24T14:23:10;16.70;64.30
51029;DHT22;37054;52.054;8.600;2023-04-24T14:25:36;16.90;64.40
51029;DHT22;37054;52.054;8.600;2023-04-24T14:28:01;17.20;64.40
51029;DHT22;37054;52.054;8.600;2023-04-24T14:30:26;17.50;64.80
51029;DHT22;37054;52.054;8.600;2023-04-24T14:32:52;17.80;64.70
51029;DHT22;37054;52.054;8.600;2023-04-24T14:35:17;18.10;63.70
51029;DHT22;37054;52.054;8.600;2023-04-24T14:37:43;18.10;63.10
51029;DHT22;37054;52.054;8.600;2023-04-24T14:40:08;18.20;62.90
51029;DHT22;37054;52.054;8.600;2023-04-24T14:42:34;18.20;62.60
51029;DHT22;37054;52.054;8.600;2023-04-24T14:45:00;18.20;61.80
51029;DHT22;37054;52.054;8.600;2023-04-24T14:47:25;18.00;61.50
51029;DHT22;37054;52.054;8.600;2023-04-24T14:49:51;17.90;61.30
51029;DHT22;37054;52.054;8.600;2023-04-24T14:52:17;17.80;61.50
51029;DHT22;37054;52.054;8.600;2023-04-24T14:54:42;17.70;60.90
51029;DHT22;37054;52.054;8.600;2023-04-24T14:57:08;17.50;61.20
51029;DHT22;37054;52.054;8.600;2023-04-24T14:59:33;17.30;61.60
51029;DHT22;37054;52.054;8.600;2023-04-24T15:01:59;17.30;61.70
51029;DHT22;37054;52.054;8.600;2023-04-24T15:04:25;17.20;61.30
51029;DHT22;37054;52.054;8.600;2023-04-24T15:06:51;17.00;61.50
51029;DHT22;37054;52.054;8.600;2023-04-24T15:09:16;16.80;61.30
51029;DHT22;37054;52.054;8.600;2023-04-24T15:11:42;16.70;61.60
51029;DHT22;37054;52.054;8.600;2023-04-24T15:14:07;16.60;62.00
51029;DHT22;37054;52.054;8.600;2023-04-24T15:16:33;16.60;62.40
51029;DHT22;37054;52.054;8.600;2023-04-24T15:18:58;16.60;62.90
51029;DHT22;37054;52.054;8.600;2023-04-24T15:21:23;16.60;63.10
51029;DHT22;37054;52.054;8.600;2023-04-24T15:23:49;16.70;63.20
51029;DHT22;37054;52.054;8.600;2023-04-24T15:26:15;16.70;63.20
51029;DHT22;37054;52.054;8.600;2023-04-24T15:28:40;16.80;62.80
51029;DHT22;37054;52.054;8.600;2023-04-24T15:31:06;16.90;63.00
51029;DHT22;37054;52.054;8.600;2023-04-24T15:33:31;17.00;62.80